createdAt,value
2019-02-17T00:00:39.263Z,20.57
2019-02-17T00:03:07.993Z,19.53
2019-02-17T00:05:36.792Z,20.17
2019-02-17T00:08:05.527Z,27.90
2019-02-17T00:10:34.254Z,20.23
2019-02-17T00:13:03.064Z,16.43
2019-02-17T00:15:31.794Z,16.73
2019-02-17T00:18:00.522Z,18.03
2019-02-17T00:20:29.390Z,21.43
2019-02-17T00:22:58.147Z,17.10
2019-02-17T00:25:26.853Z,18.47
2019-02-17T00:27:55.747Z,19.33
2019-02-17T00:30:24.480Z,18.47
2019-02-17T00:32:53.207Z,19.67
2019-02-17T00:35:22.062Z,19.10
2019-02-17T00:37:50.802Z,18.10
2019-02-17T00:40:19.532Z,18.23
2019-02-17T00:42:48.365Z,19.20
2019-02-17T00:45:17.298Z,18.37
2019-02-17T00:47:46.026Z,19.10
2019-02-17T00:50:14.928Z,19.17
2019-02-17T00:52:43.657Z,19.27
2019-02-17T00:55:12.380Z,19.23
2019-02-17T00:57:41.166Z,20.77
2019-02-17T01:00:12.689Z,18.93
2019-02-17T01:02:41.429Z,18.33
2019-02-17T01:05:10.502Z,16.53
2019-02-17T01:07:39.239Z,17.10
2019-02-17T01:10:08.861Z,16.67
2019-02-17T01:12:37.710Z,16.97
2019-02-17T01:15:11.649Z,16.37
2019-02-17T01:17:40.380Z,16.27
2019-02-17T01:20:10.556Z,16.53
2019-02-17T01:22:39.283Z,16.97
2019-02-17T01:25:11.544Z,15.53
2019-02-17T01:27:40.417Z,16.60
2019-02-17T01:30:12.055Z,16.13
2019-02-17T01:32:40.777Z,15.57
2019-02-17T01:35:09.784Z,14.33
2019-02-17T01:37:38.499Z,13.67
2019-02-17T01:40:09.497Z,13.17
2019-02-17T01:42:38.402Z,12.20
2019-02-17T01:45:09.499Z,11.70
2019-02-17T01:47:38.242Z,11.33
2019-02-17T01:50:09.398Z,11.70
2019-02-17T01:52:38.145Z,11.83
2019-02-17T01:55:08.773Z,11.50
2019-02-17T01:57:37.664Z,11.20
2019-02-17T02:00:12.403Z,11.63
2019-02-17T02:02:41.135Z,14.13
2019-02-17T02:05:10.133Z,13.23
2019-02-17T02:07:38.862Z,12.83
2019-02-17T02:10:09.790Z,13.30
2019-02-17T02:12:38.919Z,13.50
2019-02-17T02:15:10.202Z,14.27
2019-02-17T02:17:38.953Z,13.90
2019-02-17T02:20:10.681Z,15.43
2019-02-17T02:22:39.407Z,15.97
2019-02-17T02:25:08.639Z,15.43
2019-02-17T02:27:37.408Z,14.40
2019-02-17T02:30:09.114Z,15.83
2019-02-17T02:32:37.841Z,13.80
2019-02-17T02:35:07.589Z,15.30
2019-02-17T02:37:36.312Z,14.50
2019-02-17T02:40:06.044Z,14.60
2019-02-17T02:42:37.562Z,14.10
2019-02-17T02:45:09.287Z,14.53
2019-02-17T02:47:38.014Z,15.20
2019-02-17T02:50:10.012Z,15.13
2019-02-17T02:52:38.734Z,15.50
2019-02-17T02:55:08.467Z,15.63
2019-02-17T02:57:37.584Z,16.00
2019-02-17T03:00:11.789Z,16.80
2019-02-17T03:02:40.531Z,15.93
2019-02-17T03:05:09.600Z,16.67
2019-02-17T03:07:38.329Z,13.93
2019-02-17T03:10:09.165Z,14.33
2019-02-17T03:12:37.973Z,14.47
2019-02-17T03:15:08.599Z,14.00
2019-02-17T03:17:37.360Z,15.37
2019-02-17T03:20:09.113Z,14.90
2019-02-17T03:22:37.844Z,15.83
2019-02-17T03:25:07.372Z,15.20
2019-02-17T03:27:36.239Z,16.17
2019-02-17T03:30:07.433Z,18.83
2019-02-17T03:32:36.236Z,27.53
2019-02-17T03:35:05.525Z,26.37
2019-02-17T03:37:34.257Z,28.77
2019-02-17T03:40:02.984Z,25.20
2019-02-17T03:42:31.757Z,26.30
2019-02-17T03:45:00.492Z,24.23
2019-02-17T03:47:29.257Z,22.37
2019-02-17T03:49:58.089Z,22.30
2019-02-17T03:52:26.813Z,21.07
2019-02-17T03:54:55.538Z,24.53
2019-02-17T03:57:24.354Z,21.47
2019-02-17T03:59:53.077Z,19.17
2019-02-17T04:02:21.805Z,17.90
2019-02-17T04:04:50.566Z,16.60
2019-02-17T04:07:19.308Z,15.60
2019-02-17T04:09:48.033Z,11.97
2019-02-17T04:12:16.901Z,12.57
2019-02-17T04:14:45.636Z,11.37
2019-02-17T04:17:14.373Z,10.97
2019-02-17T04:19:43.338Z,12.17
2019-02-17T04:22:12.173Z,12.80
2019-02-17T04:24:40.905Z,11.80
2019-02-17T04:27:09.778Z,12.30
2019-02-17T04:29:38.521Z,13.67
2019-02-17T04:32:07.254Z,12.30
2019-02-17T04:34:36.101Z,11.70
2019-02-17T04:37:04.829Z,11.00
2019-02-17T04:39:33.563Z,11.30
2019-02-17T04:42:02.352Z,11.73
2019-02-17T04:44:31.087Z,11.33
2019-02-17T04:46:59.916Z,11.30
2019-02-17T04:49:28.803Z,11.20
2019-02-17T04:51:57.568Z,12.20
2019-02-17T04:54:26.301Z,11.27
2019-02-17T04:56:55.093Z,11.97
2019-02-17T04:59:23.831Z,10.17
2019-02-17T05:01:52.567Z,12.13
2019-02-17T05:04:21.379Z,11.63
2019-02-17T05:06:50.109Z,11.13
2019-02-17T05:09:18.834Z,11.30
2019-02-17T05:11:49.772Z,11.67
2019-02-17T05:14:18.496Z,13.00
2019-02-17T05:16:47.223Z,12.57
2019-02-17T05:19:16.030Z,12.47
2019-02-17T05:21:44.754Z,12.90
2019-02-17T05:24:13.485Z,12.60
2019-02-17T05:26:42.349Z,16.80
2019-02-17T05:29:11.094Z,31.77
2019-02-17T05:31:39.827Z,15.43
2019-02-17T05:34:08.718Z,12.77
2019-02-17T05:36:37.451Z,13.13
2019-02-17T05:39:06.779Z,13.83
2019-02-17T05:41:35.710Z,13.57
2019-02-17T05:44:04.442Z,13.67
2019-02-17T05:46:33.156Z,19.43
2019-02-17T05:49:01.933Z,25.23
2019-02-17T05:51:36.753Z,23.10
2019-02-17T05:54:07.164Z,13.13
2019-02-17T05:56:35.891Z,16.87
2019-02-17T05:59:11.022Z,14.80
2019-02-17T06:01:40.206Z,20.70
2019-02-17T06:04:09.165Z,45.23
2019-02-17T06:06:39.933Z,54.53
2019-02-17T06:09:10.327Z,43.40
2019-02-17T06:11:39.038Z,48.27
2019-02-17T06:14:07.786Z,44.13
2019-02-17T06:16:36.615Z,43.37
2019-02-17T06:19:05.347Z,45.73
2019-02-17T06:21:34.074Z,42.47
2019-02-17T06:24:04.246Z,29.50
2019-02-17T06:26:32.997Z,29.10
2019-02-17T06:29:01.719Z,29.83
2019-02-17T06:31:30.492Z,27.43
2019-02-17T06:33:59.228Z,29.13
2019-02-17T06:36:36.996Z,29.43
2019-02-17T06:39:06.842Z,29.60
2019-02-17T06:41:35.576Z,28.17
2019-02-17T06:44:04.328Z,28.93
2019-02-17T06:46:37.126Z,32.60
2019-02-17T06:49:05.861Z,30.33
2019-02-17T06:54:15.995Z,30.07
2019-02-17T06:56:49.041Z,37.73
2019-02-17T06:59:17.770Z,37.33
2019-02-17T07:01:46.750Z,57.80
2019-02-17T07:04:15.527Z,49.43
2019-02-17T07:06:45.860Z,42.60
2019-02-17T07:09:14.720Z,42.47
2019-02-17T07:11:43.463Z,38.07
2019-02-17T07:14:12.186Z,59.97
2019-02-17T07:16:41.489Z,53.53
2019-02-17T07:19:10.217Z,39.47
2019-02-17T07:21:38.942Z,42.17
2019-02-17T07:24:07.826Z,35.10
2019-02-17T07:26:36.553Z,26.90
2019-02-17T07:29:05.290Z,30.33
2019-02-17T07:31:35.362Z,32.80
2019-02-17T07:34:04.216Z,25.73
2019-02-17T07:36:32.942Z,27.93
2019-02-17T07:39:01.751Z,47.47
2019-02-17T07:41:30.510Z,43.70
2019-02-17T07:43:59.194Z,34.30
2019-02-17T07:46:28.065Z,30.43
2019-02-17T07:48:56.797Z,24.93
2019-02-17T07:51:25.520Z,24.17
2019-02-17T07:53:54.487Z,23.80
2019-02-17T07:56:23.213Z,21.47
2019-02-17T07:58:53.058Z,23.40
2019-02-17T08:01:21.926Z,21.17
2019-02-17T08:03:50.661Z,20.97
2019-02-17T08:06:19.401Z,22.97
2019-02-17T08:08:48.285Z,23.13
2019-02-17T08:11:17.004Z,22.17
2019-02-17T08:13:45.735Z,20.93
2019-02-17T08:16:14.827Z,16.57
2019-02-17T08:18:43.551Z,18.93
2019-02-17T08:21:12.281Z,16.87
2019-02-17T08:23:41.124Z,15.83
2019-02-17T08:26:09.862Z,15.70
2019-02-17T08:28:38.586Z,14.50
2019-02-17T08:31:07.494Z,18.57
2019-02-17T08:33:36.220Z,18.93
2019-02-17T08:36:04.949Z,16.27
2019-02-17T08:38:33.920Z,17.57
2019-02-17T08:41:02.658Z,16.80
2019-02-17T08:43:31.489Z,17.40
2019-02-17T08:46:00.324Z,15.40
2019-02-17T08:48:29.054Z,16.10
2019-02-17T08:50:57.787Z,14.57
2019-02-17T08:53:26.837Z,15.10
2019-02-17T08:55:55.561Z,16.27
2019-02-17T08:58:24.296Z,15.30
2019-02-17T09:00:53.219Z,16.63
2019-02-17T09:03:21.949Z,18.27
2019-02-17T09:05:50.677Z,16.37
2019-02-17T09:08:19.550Z,16.73
2019-02-17T09:10:48.284Z,16.97
2019-02-17T09:13:18.589Z,16.73
2019-02-17T09:15:47.694Z,16.00
2019-02-17T09:18:16.430Z,18.33
2019-02-17T09:20:45.156Z,16.73
2019-02-17T09:23:14.004Z,16.87
2019-02-17T09:25:42.730Z,15.83
2019-02-17T09:28:11.463Z,23.30
2019-02-17T09:30:40.262Z,16.83
2019-02-17T09:33:08.991Z,16.27
2019-02-17T09:35:37.714Z,12.83
2019-02-17T09:38:06.512Z,13.23
2019-02-17T09:40:35.239Z,13.27
2019-02-17T09:43:03.966Z,13.30
2019-02-17T09:45:32.812Z,13.80
2019-02-17T09:48:01.551Z,12.33
2019-02-17T09:50:30.286Z,12.80
2019-02-17T09:52:59.050Z,15.07
2019-02-17T09:55:27.782Z,32.13
2019-02-17T09:57:56.517Z,17.30
2019-02-17T10:00:25.380Z,18.50
2019-02-17T10:02:54.171Z,18.43
2019-02-17T10:05:22.910Z,14.13
2019-02-17T10:07:51.707Z,13.43
2019-02-17T10:10:21.138Z,14.80
2019-02-17T10:12:49.938Z,16.73
2019-02-17T10:15:18.856Z,14.17
2019-02-17T10:17:47.584Z,17.60
2019-02-17T10:20:16.618Z,16.97
2019-02-17T10:22:45.608Z,15.00
2019-02-17T10:25:14.353Z,14.80
2019-02-17T10:27:43.100Z,13.20
2019-02-17T10:30:14.439Z,12.70
2019-02-17T10:32:43.154Z,12.73
2019-02-17T10:35:11.887Z,12.03
2019-02-17T10:37:40.663Z,13.33
2019-02-17T10:40:17.156Z,13.93
2019-02-17T10:42:46.050Z,13.63
2019-02-17T10:45:14.978Z,13.77
2019-02-17T10:47:43.736Z,13.23
2019-02-17T10:50:13.347Z,12.87
2019-02-17T10:52:42.086Z,13.23
2019-02-17T10:55:12.518Z,12.57
2019-02-17T10:57:41.521Z,12.93
2019-02-17T11:00:22.112Z,12.13
2019-02-17T11:02:51.087Z,13.00
2019-02-17T11:05:19.894Z,12.37
2019-02-17T11:07:48.627Z,11.97
2019-02-17T11:10:17.602Z,13.13
2019-02-17T11:12:46.346Z,11.83
2019-02-17T11:15:17.660Z,12.00
2019-02-17T11:17:46.441Z,12.67
2019-02-17T11:20:15.172Z,12.53
2019-02-17T11:22:44.048Z,13.47
2019-02-17T11:25:13.361Z,12.87
2019-02-17T11:27:42.098Z,12.63
2019-02-17T11:30:19.571Z,11.90
2019-02-17T11:32:57.633Z,12.53
2019-02-17T11:35:18.767Z,12.23
2019-02-17T11:37:47.579Z,11.77
2019-02-17T11:40:16.316Z,10.60
2019-02-17T11:42:45.155Z,10.73
2019-02-17T11:45:18.441Z,11.20
2019-02-17T11:47:47.173Z,11.70
2019-02-17T11:50:16.082Z,11.33
2019-02-17T11:52:44.854Z,10.60
2019-02-17T11:55:16.035Z,10.43
2019-02-17T11:57:44.780Z,11.20
2019-02-17T12:00:20.030Z,14.43
2019-02-17T12:02:48.761Z,11.70
2019-02-17T12:05:17.556Z,11.10
2019-02-17T12:07:46.331Z,10.40
2019-02-17T12:10:15.100Z,11.43
2019-02-17T12:12:44.134Z,10.87
2019-02-17T12:15:14.334Z,11.43
2019-02-17T12:17:43.080Z,10.27
2019-02-17T12:20:23.343Z,11.03
2019-02-17T12:22:56.741Z,10.47
2019-02-17T12:25:27.085Z,10.23
2019-02-17T12:28:00.139Z,9.77
2019-02-17T12:30:28.876Z,10.40
2019-02-17T12:32:58.064Z,9.97
2019-02-17T12:35:26.780Z,8.90
2019-02-17T12:37:55.516Z,8.87
2019-02-17T12:40:24.285Z,9.47
2019-02-17T12:42:53.005Z,9.97
2019-02-17T12:45:21.738Z,10.10
2019-02-17T12:47:57.420Z,11.23
2019-02-17T12:50:21.003Z,11.80
2019-02-17T12:52:49.737Z,10.07
2019-02-17T12:55:18.614Z,10.03
2019-02-17T12:57:47.355Z,11.33
2019-02-17T13:00:17.698Z,10.47
2019-02-17T13:02:46.568Z,11.60
2019-02-17T13:05:15.324Z,11.50
2019-02-17T13:07:44.054Z,13.90
2019-02-17T13:10:13.399Z,11.90
2019-02-17T13:12:42.133Z,11.33
2019-02-17T13:15:12.566Z,12.30
2019-02-17T13:17:41.470Z,11.83
2019-02-17T13:20:16.615Z,11.63
2019-02-17T13:22:45.360Z,11.50
2019-02-17T13:25:16.210Z,11.20
2019-02-17T13:27:44.947Z,11.30
2019-02-17T13:30:24.895Z,11.40
2019-02-17T13:32:53.623Z,11.53
2019-02-17T13:35:22.353Z,11.77
2019-02-17T13:37:51.262Z,12.40
2019-02-17T13:40:19.990Z,11.97
2019-02-17T13:42:48.716Z,12.90
2019-02-17T13:45:18.329Z,12.20
2019-02-17T13:47:47.079Z,13.07
2019-02-17T13:50:16.796Z,12.63
2019-02-17T13:52:45.599Z,12.63
2019-02-17T13:55:14.523Z,11.77
2019-02-17T13:57:43.259Z,11.80
2019-02-17T14:00:16.906Z,12.07
2019-02-17T14:02:45.636Z,12.37
2019-02-17T14:05:14.472Z,12.13
2019-02-17T14:07:43.264Z,12.33
2019-02-17T14:10:14.113Z,13.33
2019-02-17T14:12:43.055Z,12.30
2019-02-17T14:15:14.386Z,13.33
2019-02-17T14:17:43.113Z,13.17
2019-02-17T14:20:11.939Z,12.60
2019-02-17T14:22:40.733Z,13.83
2019-02-17T14:25:11.380Z,14.70
2019-02-17T14:27:40.174Z,14.20
2019-02-17T14:30:16.014Z,14.00
2019-02-17T14:32:44.759Z,13.80
2019-02-17T14:35:13.591Z,14.47
2019-02-17T14:37:42.408Z,12.93
2019-02-17T14:40:15.572Z,13.73
2019-02-17T14:42:44.314Z,14.13
2019-02-17T14:45:17.278Z,14.00
2019-02-17T14:47:45.991Z,13.10
2019-02-17T14:50:14.720Z,14.10
2019-02-17T14:52:43.717Z,13.20
2019-02-17T14:55:13.157Z,14.13
2019-02-17T14:57:41.908Z,14.07
2019-02-17T15:00:14.113Z,13.30
2019-02-17T15:02:42.845Z,13.63
2019-02-17T15:05:11.687Z,13.40
2019-02-17T15:07:40.508Z,13.30
2019-02-17T15:10:11.052Z,14.17
2019-02-17T15:12:39.782Z,13.57
2019-02-17T15:15:13.023Z,13.67
2019-02-17T15:17:41.761Z,14.77
2019-02-17T15:20:13.512Z,14.70
2019-02-17T15:22:42.296Z,14.43
2019-02-17T15:25:12.044Z,14.90
2019-02-17T15:27:40.766Z,14.43
2019-02-17T15:30:12.446Z,15.93
2019-02-17T15:32:41.176Z,15.03
2019-02-17T15:35:09.909Z,16.17
2019-02-17T15:37:38.877Z,15.30
2019-02-17T15:40:10.621Z,16.77
2019-02-17T15:42:39.346Z,17.10
2019-02-17T15:45:15.628Z,18.13
2019-02-17T15:47:44.358Z,17.87
2019-02-17T15:50:14.489Z,21.50
2019-02-17T15:52:43.281Z,22.67
2019-02-17T15:55:17.745Z,25.87
2019-02-17T15:57:46.482Z,26.63
2019-02-17T16:00:16.787Z,30.77
2019-02-17T16:02:45.516Z,24.47
2019-02-17T16:05:14.556Z,19.53
2019-02-17T16:07:43.535Z,23.27
2019-02-17T16:10:13.653Z,26.70
2019-02-17T16:12:42.397Z,28.10
2019-02-17T16:15:24.061Z,46.00
2019-02-17T16:17:52.823Z,44.93
2019-02-17T16:20:21.635Z,45.47
2019-02-17T16:22:50.389Z,42.97
2019-02-17T16:25:18.795Z,57.80
2019-02-17T16:27:50.530Z,52.87
2019-02-17T16:30:23.773Z,56.33
2019-02-17T16:32:52.517Z,69.70
2019-02-17T16:35:21.440Z,74.00
2019-02-17T16:37:50.211Z,77.37
2019-02-17T16:40:19.499Z,78.67
2019-02-17T16:42:48.222Z,72.40
2019-02-17T16:45:17.129Z,39.37
2019-02-17T16:47:46.077Z,54.73
2019-02-17T16:50:23.030Z,65.33
2019-02-17T16:52:51.815Z,38.20
2019-02-17T16:55:20.595Z,261.07
2019-02-17T16:57:49.588Z,333.20
2019-02-17T17:00:25.242Z,315.37
2019-02-17T17:02:55.195Z,216.53
2019-02-17T17:05:24.640Z,282.30
2019-02-17T17:07:53.479Z,208.33
2019-02-17T17:10:22.653Z,177.30
2019-02-17T17:12:51.391Z,228.67
2019-02-17T17:15:20.695Z,241.97
2019-02-17T17:17:49.564Z,183.53
2019-02-17T17:20:22.847Z,172.33
2019-02-17T17:22:51.687Z,194.33
2019-02-17T17:25:22.447Z,211.10
2019-02-17T17:27:51.263Z,238.40
2019-02-17T17:30:20.339Z,243.57
2019-02-17T17:32:49.120Z,274.80
2019-02-17T17:35:17.857Z,224.90
2019-02-17T17:37:46.600Z,190.17
2019-02-17T17:40:16.883Z,188.00
2019-02-17T17:42:45.626Z,177.17
2019-02-17T17:45:22.605Z,162.50
2019-02-17T17:47:51.343Z,152.67
2019-02-17T17:50:20.122Z,159.33
2019-02-17T17:52:49.071Z,163.80
2019-02-17T17:55:17.820Z,168.63
2019-02-17T17:57:46.764Z,180.27
2019-02-17T18:00:20.818Z,177.73
2019-02-17T18:02:49.593Z,172.37
2019-02-17T18:05:18.351Z,155.73
2019-02-17T18:07:47.154Z,153.23
2019-02-17T18:10:17.070Z,136.30
2019-02-17T18:12:45.808Z,134.57
2019-02-17T18:15:20.703Z,133.50
2019-02-17T18:17:54.241Z,119.17
2019-02-17T18:20:23.939Z,121.53
2019-02-17T18:22:53.161Z,116.37
2019-02-17T18:25:31.136Z,113.67
2019-02-17T18:28:00.260Z,110.77
2019-02-17T18:30:28.984Z,122.33
2019-02-17T18:32:57.735Z,116.70
2019-02-17T18:35:26.613Z,113.70
2019-02-17T18:37:55.347Z,114.83
2019-02-17T18:40:24.098Z,104.23
2019-02-17T18:42:54.610Z,101.13
2019-02-17T18:45:23.355Z,108.20
2019-02-17T18:47:52.098Z,104.33
2019-02-17T18:50:20.913Z,104.90
2019-02-17T18:52:49.667Z,104.27
2019-02-17T18:55:18.436Z,76.70
2019-02-17T18:57:50.845Z,72.70
2019-02-17T19:00:23.792Z,80.53
2019-02-17T19:02:52.675Z,74.33
2019-02-17T19:05:31.032Z,69.97
2019-02-17T19:07:52.065Z,71.10
2019-02-17T19:10:20.895Z,75.63
2019-02-17T19:12:49.634Z,62.07
2019-02-17T19:15:20.524Z,95.13
2019-02-17T19:17:49.525Z,84.80
2019-02-17T19:20:26.831Z,105.80
2019-02-17T19:22:55.737Z,120.03
2019-02-17T19:25:24.488Z,86.17
2019-02-17T19:27:53.219Z,75.17
2019-02-17T19:30:22.094Z,128.67
2019-02-17T19:32:52.732Z,107.73
2019-02-17T19:35:21.511Z,120.73
2019-02-17T19:37:50.380Z,151.80
2019-02-17T19:40:19.123Z,156.70
2019-02-17T19:42:47.860Z,127.43
2019-02-17T19:45:17.669Z,89.73
2019-02-17T19:47:46.407Z,81.60
2019-02-17T19:50:16.453Z,102.20
2019-02-17T19:52:45.619Z,85.03
2019-02-17T19:55:15.161Z,71.13
2019-02-17T19:57:43.900Z,49.57
2019-02-17T20:00:17.272Z,66.23
2019-02-17T20:02:56.559Z,55.97
2019-02-17T20:05:27.727Z,57.00
2019-02-17T20:07:56.470Z,58.23
2019-02-17T20:10:25.286Z,56.37
2019-02-17T20:12:54.061Z,49.40
2019-02-17T20:15:24.368Z,49.50
2019-02-17T20:17:53.093Z,49.13
2019-02-17T20:20:21.858Z,66.27
2019-02-17T20:22:50.591Z,51.10
2019-02-17T20:25:19.318Z,47.10
2019-02-17T20:27:48.103Z,44.63
2019-02-17T20:30:16.827Z,36.43
2019-02-17T20:32:45.544Z,31.27
2019-02-17T20:35:14.635Z,33.00
2019-02-17T20:37:43.365Z,33.53
2019-02-17T20:40:13.990Z,46.93
2019-02-17T20:42:42.890Z,49.63
2019-02-17T20:45:16.965Z,51.77
2019-02-17T20:47:43.011Z,42.60
2019-02-17T20:50:14.733Z,36.77
2019-02-17T20:52:43.461Z,35.17
2019-02-17T20:55:14.118Z,39.80
2019-02-17T20:57:43.242Z,59.53
2019-02-17T21:00:18.100Z,81.53
2019-02-17T21:02:46.839Z,67.40
2019-02-17T21:05:15.970Z,56.80
2019-02-17T21:07:44.703Z,52.63
2019-02-17T21:10:15.386Z,41.37
2019-02-17T21:12:44.230Z,35.60
2019-02-17T21:15:14.131Z,37.40
2019-02-17T21:17:42.857Z,42.03
2019-02-17T21:20:12.065Z,45.77
2019-02-17T21:22:40.785Z,50.37
2019-02-17T21:25:11.212Z,56.60
2019-02-17T21:27:40.308Z,56.07
2019-02-17T21:30:14.622Z,56.13
2019-02-17T21:32:43.357Z,57.70
2019-02-17T21:35:13.952Z,61.20
2019-02-17T21:37:42.682Z,56.73
2019-02-17T21:40:12.410Z,51.23
2019-02-17T21:42:41.603Z,47.87
2019-02-17T21:45:12.417Z,42.83
2019-02-17T21:47:41.133Z,47.30
2019-02-17T21:50:13.929Z,39.73
2019-02-17T21:52:42.675Z,33.70
2019-02-17T21:55:12.601Z,29.53
2019-02-17T21:57:41.660Z,28.23
2019-02-17T22:00:19.851Z,22.53
2019-02-17T22:02:48.613Z,18.73
2019-02-17T22:05:17.359Z,14.07
2019-02-17T22:07:46.078Z,12.47
2019-02-17T22:10:20.236Z,9.30
2019-02-17T22:12:51.023Z,9.60
2019-02-17T22:15:23.925Z,10.33
2019-02-17T22:17:52.886Z,18.93
2019-02-17T22:20:21.606Z,18.53
2019-02-17T22:22:50.341Z,15.00
2019-02-17T22:25:19.305Z,20.00
2019-02-17T22:27:48.047Z,19.20
2019-02-17T22:30:16.865Z,19.90
2019-02-17T22:32:45.881Z,19.23
2019-02-17T22:35:14.599Z,19.57
2019-02-17T22:37:43.329Z,19.10
2019-02-17T22:40:16.188Z,22.33
2019-02-17T22:42:44.921Z,26.43
2019-02-17T22:45:13.859Z,23.47
2019-02-17T22:47:43.672Z,22.57
2019-02-17T22:50:14.841Z,23.37
2019-02-17T22:52:44.667Z,27.50
2019-02-17T22:55:14.367Z,30.50
2019-02-17T22:57:43.095Z,27.47
2019-02-17T23:00:51.210Z,32.13
2019-02-17T23:03:20.036Z,34.23
2019-02-17T23:05:48.868Z,38.27
2019-02-17T23:08:17.733Z,35.97
2019-02-17T23:10:52.656Z,36.30
2019-02-17T23:13:21.385Z,39.17
2019-02-17T23:15:50.448Z,42.90
2019-02-17T23:18:19.179Z,46.27
2019-02-17T23:20:47.921Z,62.20
2019-02-17T23:23:16.753Z,47.70
2019-02-17T23:25:45.492Z,32.87
2019-02-17T23:28:14.213Z,22.03
2019-02-17T23:30:42.973Z,23.47
2019-02-17T23:33:11.693Z,27.33
2019-02-17T23:35:40.451Z,26.70
2019-02-17T23:38:09.224Z,21.30
2019-02-17T23:40:37.952Z,20.03
2019-02-17T23:43:06.677Z,23.90
2019-02-17T23:45:37.891Z,17.00
2019-02-17T23:48:06.615Z,20.00
2019-02-17T23:50:35.345Z,22.97
2019-02-17T23:53:04.226Z,17.30
2019-02-17T23:55:32.954Z,14.23
2019-02-17T23:58:01.679Z,12.23
